createdAt,value
2019-01-16T00:00:11.818Z,1011.08
2019-01-16T00:01:11.809Z,1011.08
2019-01-16T00:02:11.795Z,1011.06
2019-01-16T00:03:11.784Z,1011.10
2019-01-16T00:04:11.777Z,1011.01
2019-01-16T00:05:11.767Z,1011.08
2019-01-16T00:06:11.763Z,1011.02
2019-01-16T00:07:11.752Z,1011.03
2019-01-16T00:08:11.737Z,1011.00
2019-01-16T00:09:11.730Z,1010.97
2019-01-16T00:10:11.724Z,1010.95
2019-01-16T00:11:11.714Z,1011.02
2019-01-16T00:12:11.706Z,1010.93
2019-01-16T00:13:11.695Z,1010.99
2019-01-16T00:14:11.682Z,1010.90
2019-01-16T00:15:11.672Z,1010.96
2019-01-16T00:16:11.663Z,1010.92
2019-01-16T00:17:11.657Z,1010.96
2019-01-16T00:18:17.008Z,1010.89
2019-01-16T00:19:11.645Z,1010.87
2019-01-16T00:20:11.630Z,1010.86
2019-01-16T00:21:11.620Z,1010.82
2019-01-16T00:22:11.605Z,1010.87
2019-01-16T00:23:11.596Z,1010.74
2019-01-16T00:24:11.591Z,1010.80
2019-01-16T00:25:11.582Z,1010.81
2019-01-16T00:26:11.568Z,1010.90
2019-01-16T00:27:11.558Z,1010.77
2019-01-16T00:28:11.549Z,1010.86
2019-01-16T00:29:11.542Z,1010.71
2019-01-16T00:30:11.535Z,1010.71
2019-01-16T00:31:11.524Z,1010.71
2019-01-16T00:32:11.516Z,1010.67
2019-01-16T00:33:11.505Z,1010.67
2019-01-16T00:34:11.495Z,1010.70
2019-01-16T00:35:11.480Z,1010.59
2019-01-16T00:36:11.473Z,1010.58
2019-01-16T00:37:11.462Z,1010.53
2019-01-16T00:38:11.458Z,1010.54
2019-01-16T00:39:11.449Z,1010.54
2019-01-16T00:40:11.434Z,1010.51
2019-01-16T00:41:11.425Z,1010.54
2019-01-16T00:42:11.421Z,1010.53
2019-01-16T00:43:11.410Z,1010.62
2019-01-16T00:44:11.400Z,1010.50
2019-01-16T00:45:11.391Z,1010.50
2019-01-16T00:46:11.377Z,1010.53
2019-01-16T00:47:11.367Z,1010.59
2019-01-16T00:48:11.357Z,1010.58
2019-01-16T00:49:11.352Z,1010.60
2019-01-16T00:50:11.344Z,1010.65
2019-01-16T00:51:11.333Z,1010.64
2019-01-16T00:52:11.323Z,1010.58
2019-01-16T00:53:11.315Z,1010.60
2019-01-16T00:54:11.300Z,1010.60
2019-01-16T00:55:11.290Z,1010.59
2019-01-16T00:56:11.288Z,1010.62
2019-01-16T00:57:11.276Z,1010.58
2019-01-16T00:58:11.261Z,1010.57
2019-01-16T00:59:11.366Z,1010.58
2019-01-16T01:00:11.242Z,1010.57
2019-01-16T01:01:11.232Z,1010.57
2019-01-16T01:02:11.227Z,1010.67
2019-01-16T01:03:11.217Z,1010.54
2019-01-16T01:04:11.260Z,1010.56
2019-01-16T01:05:11.199Z,1010.57
2019-01-16T01:06:11.185Z,1010.58
2019-01-16T01:07:11.175Z,1010.47
2019-01-16T01:08:11.165Z,1010.48
2019-01-16T01:09:11.155Z,1010.38
2019-01-16T01:10:11.150Z,1010.48
2019-01-16T01:11:11.139Z,1010.50
2019-01-16T01:12:11.126Z,1010.43
2019-01-16T01:13:11.117Z,1010.45
2019-01-16T01:14:11.111Z,1010.51
2019-01-16T01:15:11.100Z,1010.46
2019-01-16T01:16:11.093Z,1010.49
2019-01-16T01:17:11.083Z,1010.47
2019-01-16T01:18:11.070Z,1010.45
2019-01-16T01:19:11.058Z,1010.43
2019-01-16T01:20:11.051Z,1010.48
2019-01-16T01:21:11.039Z,1010.47
2019-01-16T01:22:11.035Z,1010.52
2019-01-16T01:23:11.025Z,1010.44
2019-01-16T01:24:11.015Z,1010.46
2019-01-16T01:25:11.006Z,1010.44
2019-01-16T01:26:10.994Z,1010.44
2019-01-16T01:27:10.980Z,1010.46
2019-01-16T01:28:10.975Z,1010.48
2019-01-16T01:29:10.965Z,1010.41
2019-01-16T01:30:10.954Z,1010.43
2019-01-16T01:31:10.943Z,1010.42
2019-01-16T01:32:10.932Z,1010.46
2019-01-16T01:33:10.924Z,1010.44
2019-01-16T01:34:10.919Z,1010.49
2019-01-16T01:35:10.910Z,1010.45
2019-01-16T01:36:10.899Z,1010.39
2019-01-16T01:37:10.888Z,1010.42
2019-01-16T01:38:10.875Z,1010.33
2019-01-16T01:39:10.864Z,1010.45
2019-01-16T01:40:10.855Z,1010.45
2019-01-16T01:41:10.856Z,1010.54
2019-01-16T01:42:10.840Z,1010.45
2019-01-16T01:43:10.832Z,1010.46
2019-01-16T01:44:10.817Z,1010.49
2019-01-16T01:45:10.807Z,1010.41
2019-01-16T01:46:10.801Z,1010.47
2019-01-16T01:47:10.791Z,1010.37
2019-01-16T01:48:10.782Z,1010.42
2019-01-16T01:49:10.774Z,1010.42
2019-01-16T01:50:10.759Z,1010.35
2019-01-16T01:51:11.863Z,1010.41
2019-01-16T01:52:10.739Z,1010.39
2019-01-16T01:53:10.730Z,1010.43
2019-01-16T01:54:10.725Z,1010.40
2019-01-16T01:55:10.716Z,1010.36
2019-01-16T01:56:10.705Z,1010.38
2019-01-16T01:57:10.694Z,1010.36
2019-01-16T01:58:10.681Z,1010.35
2019-01-16T01:59:10.670Z,1010.33
2019-01-16T02:00:11.891Z,1010.32
2019-01-16T02:01:10.657Z,1010.35
2019-01-16T02:02:10.643Z,1010.31
2019-01-16T02:03:10.633Z,1010.30
2019-01-16T02:04:10.623Z,1010.29
2019-01-16T02:05:10.614Z,1010.32
2019-01-16T02:06:10.609Z,1010.35
2019-01-16T02:07:10.598Z,1010.35
2019-01-16T02:08:10.588Z,1010.30
2019-01-16T02:09:10.579Z,1010.29
2019-01-16T02:10:10.565Z,1010.25
2019-01-16T02:11:10.554Z,1010.30
2019-01-16T02:12:10.544Z,1010.20
2019-01-16T02:13:10.536Z,1010.25
2019-01-16T02:14:10.534Z,1010.20
2019-01-16T02:15:10.520Z,1010.23
2019-01-16T02:16:10.507Z,1010.21
2019-01-16T02:17:10.497Z,1010.31
2019-01-16T02:18:10.492Z,1010.33
2019-01-16T02:19:10.481Z,1010.31
2019-01-16T02:20:10.471Z,1010.30
2019-01-16T02:21:10.462Z,1010.31
2019-01-16T02:22:10.453Z,1010.32
2019-01-16T02:23:10.437Z,1010.24
2019-01-16T02:24:10.427Z,1010.30
2019-01-16T02:25:10.418Z,1010.29
2019-01-16T02:26:10.413Z,1010.25
2019-01-16T02:27:10.403Z,1010.27
2019-01-16T02:28:10.394Z,1010.30
2019-01-16T02:29:10.384Z,1010.28
2019-01-16T02:30:10.373Z,1010.25
2019-01-16T02:31:10.363Z,1010.22
2019-01-16T02:32:10.357Z,1010.24
2019-01-16T02:33:10.345Z,1010.24
2019-01-16T02:34:10.332Z,1010.28
2019-01-16T02:35:10.321Z,1010.26
2019-01-16T02:36:10.310Z,1010.20
2019-01-16T02:37:10.302Z,1010.18
2019-01-16T02:38:10.297Z,1010.20
2019-01-16T02:39:10.289Z,1010.18
2019-01-16T02:40:10.277Z,1010.16
2019-01-16T02:41:10.267Z,1010.23
2019-01-16T02:42:10.266Z,1010.27
2019-01-16T02:43:10.254Z,1010.16
2019-01-16T02:44:10.234Z,1010.22
2019-01-16T02:45:10.225Z,1010.14
2019-01-16T02:46:10.220Z,1010.11
2019-01-16T02:47:10.208Z,1010.13
2019-01-16T02:48:10.194Z,1010.13
2019-01-16T02:49:10.187Z,1010.10
2019-01-16T02:50:10.179Z,1010.05
2019-01-16T02:51:10.169Z,1010.04
2019-01-16T02:52:10.159Z,1010.04
2019-01-16T02:53:10.151Z,1010.03
2019-01-16T02:54:10.138Z,1010.00
2019-01-16T02:55:10.127Z,1010.06
2019-01-16T02:56:10.119Z,1010.06
2019-01-16T02:57:10.107Z,1010.06
2019-01-16T02:58:10.102Z,1010.06
2019-01-16T02:59:10.093Z,1010.08
2019-01-16T03:00:10.082Z,1010.00
2019-01-16T03:01:10.072Z,1009.99
2019-01-16T03:02:10.058Z,1010.00
2019-01-16T03:03:10.048Z,1009.98
2019-01-16T03:04:10.044Z,1009.94
2019-01-16T03:05:10.033Z,1009.96
2019-01-16T03:06:10.022Z,1009.94
2019-01-16T03:07:10.007Z,1009.95
2019-01-16T03:08:09.998Z,1009.87
2019-01-16T03:09:09.992Z,1009.93
2019-01-16T03:10:09.984Z,1009.91
2019-01-16T03:11:09.974Z,1009.87
2019-01-16T03:12:09.964Z,1009.87
2019-01-16T03:13:09.955Z,1009.86
2019-01-16T03:14:09.941Z,1009.86
2019-01-16T03:15:09.941Z,1009.84
2019-01-16T03:16:09.920Z,1009.85
2019-01-16T03:17:09.910Z,1009.84
2019-01-16T03:18:09.905Z,1009.79
2019-01-16T03:19:09.897Z,1009.78
2019-01-16T03:20:09.882Z,1009.81
2019-01-16T03:21:09.872Z,1009.80
2019-01-16T03:22:09.869Z,1009.79
2019-01-16T03:23:09.859Z,1009.82
2019-01-16T03:24:09.848Z,1009.78
2019-01-16T03:25:09.839Z,1009.72
2019-01-16T03:26:09.823Z,1009.74
2019-01-16T03:27:09.813Z,1009.74
2019-01-16T03:28:09.803Z,1009.72
2019-01-16T03:29:09.795Z,1009.70
2019-01-16T03:30:09.791Z,1009.72
2019-01-16T03:31:09.974Z,1009.68
2019-01-16T03:32:09.773Z,1009.66
2019-01-16T03:33:09.769Z,1009.65
2019-01-16T03:34:09.744Z,1009.64
2019-01-16T03:35:09.734Z,1009.67
2019-01-16T03:36:09.730Z,1009.62
2019-01-16T03:37:09.718Z,1009.65
2019-01-16T03:38:09.705Z,1009.58
2019-01-16T03:39:09.693Z,1009.63
2019-01-16T03:40:09.684Z,1009.61
2019-01-16T03:41:09.675Z,1009.56
2019-01-16T03:42:09.672Z,1009.58
2019-01-16T03:43:09.660Z,1009.57
2019-01-16T03:44:09.649Z,1009.62
2019-01-16T03:45:09.642Z,1009.57
2019-01-16T03:46:09.629Z,1009.50
2019-01-16T03:47:09.619Z,1009.48
2019-01-16T03:48:09.605Z,1009.50
2019-01-16T03:49:13.759Z,1009.49
2019-01-16T03:50:09.669Z,1009.48
2019-01-16T03:51:09.579Z,1009.46
2019-01-16T03:52:09.566Z,1009.48
2019-01-16T03:53:09.555Z,1009.50
2019-01-16T03:54:09.550Z,1009.41
2019-01-16T03:55:09.539Z,1009.45
2019-01-16T03:56:09.530Z,1009.38
2019-01-16T03:57:09.521Z,1009.38
2019-01-16T03:58:09.506Z,1009.33
2019-01-16T03:59:09.495Z,1009.28
2019-01-16T04:00:09.487Z,1009.33
2019-01-16T04:01:09.476Z,1009.26
2019-01-16T04:02:09.470Z,1009.21
2019-01-16T04:03:09.460Z,1009.22
2019-01-16T04:04:09.450Z,1009.22
2019-01-16T04:05:09.439Z,1009.18
2019-01-16T04:06:09.424Z,1009.20
2019-01-16T04:07:09.416Z,1009.19
2019-01-16T04:08:09.409Z,1009.17
2019-01-16T04:09:09.398Z,1009.13
2019-01-16T04:10:09.421Z,1009.15
2019-01-16T04:11:09.375Z,1009.11
2019-01-16T04:12:09.367Z,1009.14
2019-01-16T04:13:09.354Z,1009.10
2019-01-16T04:14:09.352Z,1009.02
2019-01-16T04:15:09.338Z,1009.02
2019-01-16T04:16:09.327Z,1008.98
2019-01-16T04:17:09.347Z,1009.01
2019-01-16T04:18:09.303Z,1009.02
2019-01-16T04:19:09.297Z,1009.00
2019-01-16T04:20:09.284Z,1008.97
2019-01-16T04:21:09.275Z,1008.96
2019-01-16T04:22:09.268Z,1008.97
2019-01-16T04:23:09.256Z,1008.96
2019-01-16T04:24:09.242Z,1008.92
2019-01-16T04:25:09.246Z,1008.88
2019-01-16T04:26:09.227Z,1008.89
2019-01-16T04:27:09.216Z,1008.82
2019-01-16T04:28:09.207Z,1008.84
2019-01-16T04:29:09.196Z,1008.83
2019-01-16T04:30:09.182Z,1008.79
2019-01-16T04:31:09.175Z,1008.79
2019-01-16T04:32:09.160Z,1008.78
2019-01-16T04:33:09.150Z,1008.73
2019-01-16T04:34:09.146Z,1008.79
2019-01-16T04:35:09.134Z,1008.76
2019-01-16T04:36:09.126Z,1008.70
2019-01-16T04:37:09.116Z,1008.69
2019-01-16T04:38:09.101Z,1008.68
2019-01-16T04:39:09.090Z,1008.64
2019-01-16T04:40:09.085Z,1008.61
2019-01-16T04:41:09.076Z,1008.67
2019-01-16T04:42:09.062Z,1008.65
2019-01-16T04:43:09.053Z,1008.62
2019-01-16T04:44:10.022Z,1008.60
2019-01-16T04:45:09.030Z,1008.59
2019-01-16T04:46:09.025Z,1008.57
2019-01-16T04:47:09.013Z,1008.58
2019-01-16T04:48:09.005Z,1008.55
2019-01-16T04:49:08.996Z,1008.54
2019-01-16T04:50:08.981Z,1008.52
2019-01-16T04:51:08.969Z,1008.54
2019-01-16T04:52:08.961Z,1008.52
2019-01-16T04:53:08.951Z,1008.55
2019-01-16T04:54:08.946Z,1008.55
2019-01-16T04:55:08.934Z,1008.54
2019-01-16T04:56:08.921Z,1008.49
2019-01-16T04:57:08.912Z,1008.48
2019-01-16T04:58:08.907Z,1008.42
2019-01-16T04:59:08.895Z,1008.51
2019-01-16T05:00:08.884Z,1008.47
2019-01-16T05:01:08.874Z,1008.47
2019-01-16T05:02:08.860Z,1008.45
2019-01-16T05:03:08.852Z,1008.46
2019-01-16T05:04:08.839Z,1008.46
2019-01-16T05:05:08.831Z,1008.42
2019-01-16T05:06:08.830Z,1008.45
2019-01-16T05:07:08.814Z,1008.45
2019-01-16T05:08:08.806Z,1008.40
2019-01-16T05:09:08.796Z,1008.41
2019-01-16T05:10:08.781Z,1008.37
2019-01-16T05:11:08.770Z,1008.42
2019-01-16T05:12:08.766Z,1008.37
2019-01-16T05:13:08.756Z,1008.37
2019-01-16T05:14:08.742Z,1008.32
2019-01-16T05:15:08.731Z,1008.32
2019-01-16T05:16:08.720Z,1008.34
2019-01-16T05:17:08.711Z,1008.30
2019-01-16T05:18:08.706Z,1008.27
2019-01-16T05:19:08.696Z,1008.31
2019-01-16T05:20:08.686Z,1008.27
2019-01-16T05:21:08.676Z,1008.23
2019-01-16T05:22:08.662Z,1008.23
2019-01-16T05:23:08.655Z,1008.23
2019-01-16T05:24:08.642Z,1008.13
2019-01-16T05:25:08.632Z,1008.17
2019-01-16T05:26:08.627Z,1008.15
2019-01-16T05:27:08.616Z,1008.19
2019-01-16T05:28:08.602Z,1008.15
2019-01-16T05:29:08.592Z,1008.16
2019-01-16T05:30:08.587Z,1008.10
2019-01-16T05:31:08.580Z,1008.15
2019-01-16T05:32:08.570Z,1008.07
2019-01-16T05:33:08.561Z,1008.13
2019-01-16T05:34:08.548Z,1008.12
2019-01-16T05:35:08.539Z,1008.11
2019-01-16T05:36:08.523Z,1008.06
2019-01-16T05:37:08.515Z,1008.03
2019-01-16T05:38:08.511Z,1007.99
2019-01-16T05:39:08.498Z,1007.98
2019-01-16T05:40:08.488Z,1008.00
2019-01-16T05:41:08.498Z,1007.97
2019-01-16T05:42:08.471Z,1007.98
2019-01-16T05:43:08.458Z,1007.99
2019-01-16T05:44:08.451Z,1008.00
2019-01-16T05:45:08.437Z,1008.05
2019-01-16T05:46:08.424Z,1007.98
2019-01-16T05:47:08.415Z,1007.98
2019-01-16T05:48:08.404Z,1008.02
2019-01-16T05:49:08.394Z,1008.00
2019-01-16T05:50:08.406Z,1008.06
2019-01-16T05:51:08.378Z,1008.07
2019-01-16T05:52:08.369Z,1008.02
2019-01-16T05:53:08.360Z,1008.02
2019-01-16T05:54:08.344Z,1008.00
2019-01-16T05:55:08.335Z,1007.95
2019-01-16T05:56:08.323Z,1007.92
2019-01-16T05:57:08.315Z,1007.92
2019-01-16T05:58:08.309Z,1007.94
2019-01-16T05:59:08.299Z,1007.95
2019-01-16T06:00:08.285Z,1007.95
2019-01-16T06:01:08.276Z,1007.99
2019-01-16T06:02:08.270Z,1007.95
2019-01-16T06:03:08.259Z,1007.98
2019-01-16T06:04:08.250Z,1007.93
2019-01-16T06:05:08.241Z,1007.96
2019-01-16T06:06:08.228Z,1007.95
2019-01-16T06:07:08.217Z,1007.90
2019-01-16T06:08:08.207Z,1007.95
2019-01-16T06:09:08.197Z,1007.96
2019-01-16T06:10:08.193Z,1007.93
2019-01-16T06:11:08.182Z,1007.92
2019-01-16T06:12:08.170Z,1007.92
2019-01-16T06:13:08.161Z,1007.89
2019-01-16T06:14:08.147Z,1007.92
2019-01-16T06:15:08.136Z,1007.76
2019-01-16T06:16:08.132Z,1007.84
2019-01-16T06:17:08.123Z,1007.87
2019-01-16T06:18:08.108Z,1007.85
2019-01-16T06:19:08.098Z,1007.86
2019-01-16T06:20:08.090Z,1007.87
2019-01-16T06:21:08.078Z,1007.84
2019-01-16T06:22:08.073Z,1007.85
2019-01-16T06:23:08.063Z,1007.85
2019-01-16T06:24:08.055Z,1007.84
2019-01-16T06:25:08.045Z,1007.90
2019-01-16T06:26:08.030Z,1007.86
2019-01-16T06:27:08.019Z,1007.84
2019-01-16T06:28:08.010Z,1007.84
2019-01-16T06:29:08.005Z,1007.84
2019-01-16T06:30:07.995Z,1007.88
2019-01-16T06:31:07.990Z,1007.91
2019-01-16T06:32:07.973Z,1007.87
2019-01-16T06:33:07.961Z,1007.86
2019-01-16T06:34:07.956Z,1007.87
2019-01-16T06:35:07.945Z,1007.79
2019-01-16T06:36:07.935Z,1007.84
2019-01-16T06:37:07.926Z,1007.83
2019-01-16T06:38:07.974Z,1007.78
2019-01-16T06:39:07.902Z,1007.75
2019-01-16T06:40:07.892Z,1007.76
2019-01-16T06:41:07.883Z,1007.77
2019-01-16T06:42:07.880Z,1007.70
2019-01-16T06:43:07.866Z,1007.72
2019-01-16T06:44:07.857Z,1007.80
2019-01-16T06:45:07.847Z,1007.72
2019-01-16T06:46:07.832Z,1007.78
2019-01-16T06:47:07.821Z,1007.70
2019-01-16T06:48:07.818Z,1007.77
2019-01-16T06:49:07.808Z,1007.74
2019-01-16T06:50:07.794Z,1007.70
2019-01-16T06:51:07.783Z,1007.68
2019-01-16T06:52:07.772Z,1007.76
2019-01-16T06:53:07.768Z,1007.74
2019-01-16T06:54:07.757Z,1007.70
2019-01-16T06:55:07.747Z,1007.71
2019-01-16T06:56:07.738Z,1007.65
2019-01-16T06:57:07.728Z,1007.63
2019-01-16T06:58:07.716Z,1007.66
2019-01-16T06:59:07.705Z,1007.70
2019-01-16T07:00:07.694Z,1007.69
2019-01-16T07:01:07.684Z,1007.65
2019-01-16T07:02:07.680Z,1007.52
2019-01-16T07:03:07.669Z,1007.59
2019-01-16T07:04:07.655Z,1007.51
2019-01-16T07:05:07.646Z,1007.54
2019-01-16T07:06:07.643Z,1007.54
2019-01-16T07:07:07.630Z,1007.60
2019-01-16T07:08:07.620Z,1007.48
2019-01-16T07:09:07.611Z,1007.51
2019-01-16T07:10:07.597Z,1007.55
2019-01-16T07:11:07.585Z,1007.61
2019-01-16T07:12:07.575Z,1007.55
2019-01-16T07:13:07.567Z,1007.51
2019-01-16T07:14:07.561Z,1007.53
2019-01-16T07:15:07.550Z,1007.49
2019-01-16T07:16:07.541Z,1007.55
2019-01-16T07:17:07.532Z,1007.54
2019-01-16T07:18:07.518Z,1007.52
2019-01-16T07:19:07.506Z,1007.51
2019-01-16T07:20:09.898Z,1007.57
2019-01-16T07:21:07.493Z,1007.55
2019-01-16T07:22:07.478Z,1007.57
2019-01-16T07:23:07.466Z,1007.61
2019-01-16T07:24:07.456Z,1007.62
2019-01-16T07:25:07.446Z,1007.61
2019-01-16T07:26:07.441Z,1007.64
2019-01-16T07:27:07.431Z,1007.66
2019-01-16T07:28:07.423Z,1007.70
2019-01-16T07:29:07.412Z,1007.71
2019-01-16T07:30:07.399Z,1007.73
2019-01-16T07:31:07.387Z,1007.65
2019-01-16T07:32:07.377Z,1007.72
2019-01-16T07:33:07.369Z,1007.71
2019-01-16T07:34:07.363Z,1007.68
2019-01-16T07:35:07.356Z,1007.66
2019-01-16T07:36:07.338Z,1007.60
2019-01-16T07:37:07.329Z,1007.57
2019-01-16T07:38:07.324Z,1007.63
2019-01-16T07:39:07.315Z,1007.54
2019-01-16T07:40:07.306Z,1007.61
2019-01-16T07:41:07.293Z,1007.71
2019-01-16T07:42:07.280Z,1007.56
2019-01-16T07:43:07.269Z,1007.55
2019-01-16T07:44:07.262Z,1007.57
2019-01-16T07:45:07.249Z,1007.70
2019-01-16T07:46:07.243Z,1007.71
2019-01-16T07:47:07.235Z,1007.67
2019-01-16T07:48:07.225Z,1007.60
2019-01-16T07:49:07.215Z,1007.56
2019-01-16T07:50:07.200Z,1007.61
2019-01-16T07:51:07.189Z,1007.62
2019-01-16T07:52:07.184Z,1007.63
2019-01-16T07:53:07.175Z,1007.61
2019-01-16T07:54:07.169Z,1007.62
2019-01-16T07:55:07.150Z,1007.61
2019-01-16T07:56:07.140Z,1007.63
2019-01-16T07:57:07.130Z,1007.64
2019-01-16T07:58:07.125Z,1007.66
2019-01-16T07:59:07.114Z,1007.63
2019-01-16T08:00:07.104Z,1007.69
2019-01-16T08:01:07.095Z,1007.71
2019-01-16T08:02:07.080Z,1007.68
2019-01-16T08:03:07.070Z,1007.77
2019-01-16T08:04:07.060Z,1007.58
2019-01-16T08:05:07.051Z,1007.60
2019-01-16T08:06:07.047Z,1007.63
2019-01-16T08:07:07.036Z,1007.67
2019-01-16T08:08:07.022Z,1007.64
2019-01-16T08:09:07.012Z,1007.77
2019-01-16T08:10:07.007Z,1007.64
2019-01-16T08:11:06.997Z,1007.75
2019-01-16T08:12:06.987Z,1007.65
2019-01-16T08:13:06.976Z,1007.66
2019-01-16T08:14:06.963Z,1007.61
2019-01-16T08:15:06.951Z,1007.69
2019-01-16T08:16:06.942Z,1007.69
2019-01-16T08:17:06.932Z,1007.52
2019-01-16T08:18:06.926Z,1007.71
2019-01-16T08:19:06.917Z,1007.60
2019-01-16T08:20:06.908Z,1007.65
2019-01-16T08:21:06.898Z,1007.61
2019-01-16T08:22:06.883Z,1007.59
2019-01-16T08:23:06.873Z,1007.60
2019-01-16T08:24:06.870Z,1007.53
2019-01-16T08:25:06.858Z,1007.59
2019-01-16T08:26:06.844Z,1007.59
2019-01-16T08:27:06.832Z,1007.63
2019-01-16T08:28:06.824Z,1007.60
2019-01-16T08:29:06.814Z,1007.70
2019-01-16T08:30:06.807Z,1007.64
2019-01-16T08:31:06.798Z,1007.70
2019-01-16T08:32:06.789Z,1007.79
2019-01-16T08:33:06.779Z,1007.74
2019-01-16T08:34:06.766Z,1007.77
2019-01-16T08:35:06.755Z,1007.78
2019-01-16T08:36:06.743Z,1007.77
2019-01-16T08:37:06.734Z,1007.79
2019-01-16T08:38:06.728Z,1007.86
2019-01-16T08:39:06.717Z,1007.79
2019-01-16T08:40:06.704Z,1007.72
2019-01-16T08:41:06.696Z,1007.69
2019-01-16T08:42:06.692Z,1007.71
2019-01-16T08:43:06.681Z,1007.70
2019-01-16T08:44:13.458Z,1007.64
2019-01-16T08:45:06.661Z,1007.62
2019-01-16T08:46:06.646Z,1007.66
2019-01-16T08:47:06.637Z,1007.65
2019-01-16T08:48:06.627Z,1007.57
2019-01-16T08:49:06.619Z,1007.53
2019-01-16T08:50:06.613Z,1007.47
2019-01-16T08:51:06.603Z,1007.56
2019-01-16T08:52:06.592Z,1007.53
2019-01-16T08:53:06.585Z,1007.60
2019-01-16T08:57:06.544Z,1007.54
2019-01-16T09:07:06.444Z,1007.60
2019-01-16T09:08:06.433Z,1007.59
2019-01-16T09:09:06.428Z,1007.57
2019-01-16T09:10:06.420Z,1007.55
2019-01-16T09:11:06.413Z,1007.57
2019-01-16T09:12:06.395Z,1007.65
2019-01-16T09:13:06.387Z,1007.60
2019-01-16T09:14:06.383Z,1007.51
2019-01-16T09:15:06.372Z,1007.60
2019-01-16T09:16:06.363Z,1007.55
2019-01-16T09:17:06.354Z,1007.61
2019-01-16T09:18:06.341Z,1007.54
2019-01-16T09:19:06.330Z,1007.57
2019-01-16T09:20:06.321Z,1007.54
2019-01-16T09:21:06.311Z,1007.44
2019-01-16T09:22:06.308Z,1007.55
2019-01-16T09:23:06.297Z,1007.54
2019-01-16T09:24:06.288Z,1007.56
2019-01-16T09:25:06.278Z,1007.47
2019-01-16T09:26:06.265Z,1007.46
2019-01-16T09:27:06.254Z,1007.50
2019-01-16T09:28:06.249Z,1007.48
2019-01-16T09:29:06.239Z,1007.40
2019-01-16T09:30:06.231Z,1007.48
2019-01-16T09:31:06.220Z,1007.42
2019-01-16T09:32:06.208Z,1007.42
2019-01-16T09:33:06.198Z,1007.42
2019-01-16T09:34:06.194Z,1007.32
2019-01-16T09:35:06.183Z,1007.37
2019-01-16T09:36:06.172Z,1007.34
2019-01-16T09:37:06.163Z,1007.35
2019-01-16T09:38:06.151Z,1007.30
2019-01-16T09:39:06.140Z,1007.42
2019-01-16T09:40:06.132Z,1007.35
2019-01-16T09:41:06.121Z,1007.25
2019-01-16T09:42:06.117Z,1007.31
2019-01-16T09:43:06.108Z,1007.28
2019-01-16T09:44:06.093Z,1007.26
2019-01-16T09:45:06.084Z,1007.25
2019-01-16T09:46:06.080Z,1007.24
2019-01-16T09:47:06.069Z,1007.24
2019-01-16T09:48:06.063Z,1007.15
2019-01-16T09:49:06.049Z,1007.15
2019-01-16T09:50:06.036Z,1007.13
2019-01-16T09:51:06.027Z,1007.23
2019-01-16T09:52:06.017Z,1007.18
2019-01-16T09:53:06.008Z,1007.15
2019-01-16T09:54:06.005Z,1007.18
2019-01-16T09:55:05.993Z,1007.09
2019-01-16T09:56:05.987Z,1007.10
2019-01-16T09:57:05.974Z,1007.07
2019-01-16T09:58:05.960Z,1007.05
2019-01-16T09:59:05.950Z,1007.18
2019-01-16T10:00:05.947Z,1007.15
2019-01-16T10:01:05.938Z,1007.14
2019-01-16T10:02:05.924Z,1007.08
2019-01-16T10:03:05.914Z,1007.06
2019-01-16T10:04:05.903Z,1007.06
2019-01-16T10:05:05.896Z,1007.07
2019-01-16T10:06:05.898Z,1007.10
2019-01-16T10:07:05.882Z,1007.07
2019-01-16T10:08:05.872Z,1007.06
2019-01-16T10:09:05.863Z,1007.06
2019-01-16T10:10:05.848Z,1007.08
2019-01-16T10:11:05.840Z,1007.02
2019-01-16T10:12:05.831Z,1006.98
2019-01-16T10:13:05.822Z,1007.04
2019-01-16T10:14:05.817Z,1006.97
2019-01-16T10:15:05.808Z,1007.03
2019-01-16T10:16:05.792Z,1006.90
2019-01-16T10:17:05.785Z,1006.98
2019-01-16T10:18:05.781Z,1007.00
2019-01-16T10:19:05.775Z,1006.91
2019-01-16T10:20:05.760Z,1006.95
2019-01-16T10:21:05.751Z,1006.92
2019-01-16T10:22:05.738Z,1006.98
2019-01-16T10:23:05.729Z,1007.03
2019-01-16T10:24:05.720Z,1007.05
2019-01-16T10:25:05.709Z,1007.06
2019-01-16T10:26:05.706Z,1007.07
2019-01-16T10:27:05.696Z,1007.05
2019-01-16T10:28:05.687Z,1007.02
2019-01-16T10:29:05.679Z,1006.98
2019-01-16T10:30:05.664Z,1006.94
2019-01-16T10:31:05.655Z,1006.97
2019-01-16T10:32:05.652Z,1006.86
2019-01-16T10:33:05.641Z,1006.87
2019-01-16T10:34:05.627Z,1006.85
2019-01-16T10:35:05.617Z,1006.91
2019-01-16T10:36:05.607Z,1006.85
2019-01-16T10:37:05.598Z,1006.95
2019-01-16T10:38:05.593Z,1006.87
2019-01-16T10:39:05.583Z,1006.93
2019-01-16T10:40:05.576Z,1006.80
2019-01-16T10:41:05.566Z,1006.83
2019-01-16T10:42:05.553Z,1006.88
2019-01-16T10:43:05.608Z,1006.84
2019-01-16T10:44:05.533Z,1006.77
2019-01-16T10:45:05.523Z,1006.76
2019-01-16T10:46:05.520Z,1006.80
2019-01-16T10:47:05.511Z,1006.75
2019-01-16T10:48:05.497Z,1006.77
2019-01-16T10:49:05.488Z,1006.81
2019-01-16T10:50:05.482Z,1006.75
2019-01-16T10:51:05.473Z,1006.73
2019-01-16T10:52:05.466Z,1006.67
2019-01-16T10:53:05.456Z,1006.66
2019-01-16T10:54:05.443Z,1006.63
2019-01-16T10:55:05.433Z,1006.68
2019-01-16T10:56:05.423Z,1006.61
2019-01-16T10:57:05.415Z,1006.57
2019-01-16T10:58:05.410Z,1006.59
2019-01-16T10:59:05.401Z,1006.53
2019-01-16T11:00:05.401Z,1006.54
2019-01-16T11:01:05.384Z,1006.57
2019-01-16T11:02:05.370Z,1006.52
2019-01-16T11:03:05.361Z,1006.44
2019-01-16T11:04:05.357Z,1006.50
2019-01-16T11:05:05.348Z,1006.35
2019-01-16T11:06:05.334Z,1006.45
2019-01-16T11:07:05.324Z,1006.33
2019-01-16T11:08:05.316Z,1006.31
2019-01-16T11:09:05.307Z,1006.33
2019-01-16T11:10:05.303Z,1006.25
2019-01-16T11:11:06.709Z,1006.26
2019-01-16T11:12:05.285Z,1006.28
2019-01-16T11:13:05.275Z,1006.10
2019-01-16T11:14:05.263Z,1006.16
2019-01-16T11:15:05.252Z,1006.21
2019-01-16T11:16:05.245Z,1006.14
2019-01-16T11:17:05.234Z,1006.14
2019-01-16T11:18:05.231Z,1006.12
2019-01-16T11:19:05.221Z,1006.16
2019-01-16T11:20:05.207Z,1006.10
2019-01-16T11:21:11.002Z,1006.08
2019-01-16T11:22:05.195Z,1006.07
2019-01-16T11:23:05.185Z,1006.12
2019-01-16T11:24:05.176Z,1006.06
2019-01-16T11:25:05.169Z,1006.17
2019-01-16T11:26:05.154Z,1006.10
2019-01-16T11:27:05.144Z,1006.05
2019-01-16T11:28:05.134Z,1006.09
2019-01-16T11:29:05.128Z,1006.07
2019-01-16T11:30:05.124Z,1006.03
2019-01-16T11:31:05.115Z,1006.02
2019-01-16T11:32:05.104Z,1005.90
2019-01-16T11:33:05.096Z,1005.96
2019-01-16T11:34:05.083Z,1005.86
2019-01-16T11:35:05.073Z,1005.98
2019-01-16T11:36:05.079Z,1005.96
2019-01-16T11:37:05.061Z,1005.85
2019-01-16T11:38:05.048Z,1005.82
2019-01-16T11:39:05.040Z,1005.84
2019-01-16T11:40:05.252Z,1005.77
2019-01-16T11:41:05.025Z,1005.78
2019-01-16T11:42:05.022Z,1005.78
2019-01-16T11:43:05.010Z,1005.76
2019-01-16T11:44:04.998Z,1005.77
2019-01-16T11:45:04.988Z,1005.65
2019-01-16T11:46:04.985Z,1005.81
2019-01-16T11:47:04.978Z,1005.71
2019-01-16T11:48:04.968Z,1005.69
2019-01-16T11:49:04.960Z,1005.71
2019-01-16T11:50:04.946Z,1005.68
2019-01-16T11:51:04.938Z,1005.69
2019-01-16T11:52:04.934Z,1005.67
2019-01-16T11:53:04.925Z,1005.66
2019-01-16T11:54:04.915Z,1005.70
2019-01-16T11:55:04.902Z,1005.64
2019-01-16T11:56:04.894Z,1005.69
2019-01-16T11:57:04.886Z,1005.64
2019-01-16T11:58:04.882Z,1005.54
2019-01-16T11:59:04.873Z,1005.56
2019-01-16T12:00:04.863Z,1005.59
2019-01-16T12:01:04.856Z,1005.56
2019-01-16T12:02:04.842Z,1005.61
2019-01-16T12:03:04.832Z,1005.65
2019-01-16T12:04:04.824Z,1005.64
2019-01-16T12:05:04.819Z,1005.50
2019-01-16T12:06:04.811Z,1005.61
2019-01-16T12:07:04.802Z,1005.48
2019-01-16T12:08:04.788Z,1005.46
2019-01-16T12:09:04.780Z,1005.42
2019-01-16T12:10:04.775Z,1005.48
2019-01-16T12:11:04.766Z,1005.43
2019-01-16T12:12:04.755Z,1005.36
2019-01-16T12:13:04.804Z,1005.40
2019-01-16T12:14:04.733Z,1005.32
2019-01-16T12:15:04.723Z,1005.33
2019-01-16T12:16:04.715Z,1005.29
2019-01-16T12:17:04.725Z,1005.30